Time;durP1;ratioP1;P1;durP2;ratioP2;P2;SDS_P1;SDS_P2;PMS_P1;PMS_P2;Temp;Humidity;BMP_temperature;BMP_pressure;BME280_temperature;BME280_humidity;BME280_pressure;Samples;Min_cycle;Max_cycle;Signal;HPM_P1;HPM_P2
2021/12/23 00:02:17;;;;;;;;;;;-2.00;99.90;;;;;;6120669;23;19925;-78
2021/12/23 00:04:42;;;;;;;;;;;-2.00;99.90;;;;;;6144710;23;19968;-79
2021/12/23 00:07:08;;;;;;;;;;;-2.00;99.90;;;;;;6116743;23;19984;-78
2021/12/23 00:10:02;;;;;;;;;;;-2.00;99.90;;;;;;6142133;23;19988;-78
2021/12/23 00:12:19;;;;;;;;;;;-2.00;99.90;;;;;;6143363;23;19944;-78
2021/12/23 00:14:46;;;;;;;;;;;-1.90;99.90;;;;;;6142292;23;20027;-79
2021/12/23 00:19:58;;;;;;;;;;;-1.90;99.90;;;;;;6134358;23;20505;-79
2021/12/23 00:25:08;;;;;;;;;;;-1.90;99.90;;;;;;6119857;23;19925;-80
2021/12/23 00:27:33;;;;;;;;;;;-1.90;99.90;;;;;;6143027;23;19981;-79
2021/12/23 00:29:59;;;;;;;;;;;-1.90;99.90;;;;;;6120408;23;19991;-79
2021/12/23 00:32:24;;;;;;;;;;;-1.00;99.90;;;;;;6118834;23;20020;-79
2021/12/23 00:34:50;;;;;;;;;;;-1.90;99.90;;;;;;6118837;23;19921;-79
2021/12/23 00:37:17;;;;;;;;;;;-1.80;99.90;;;;;;6117672;23;19999;-80
2021/12/23 00:39:44;;;;;;;;;;;-1.80;99.90;;;;;;6119395;23;19928;-80
2021/12/23 00:42:11;;;;;;;;;;;-1.80;99.90;;;;;;6142818;23;19925;-79
2021/12/23 00:44:39;;;;;;;;;;;-0.80;99.90;;;;;;6144314;23;19932;-79
2021/12/23 00:47:05;;;;;;;;;;;-1.80;99.90;;;;;;6144233;23;19921;-79
2021/12/23 00:49:30;;;;;;;;;;;-1.80;99.90;;;;;;6143848;23;19931;-78
2021/12/23 00:51:57;;;;;;;;;;;-1.80;99.90;;;;;;6094103;23;19921;-79
2021/12/23 00:54:28;;;;;;;;;;;-1.70;99.90;;;;;;6118981;23;20027;-79
2021/12/23 00:56:54;;;;;;;;;;;-1.70;99.90;;;;;;6141779;23;20374;-79
2021/12/23 00:59:20;;;;;;;;;;;-0.60;99.90;;;;;;6118837;23;19979;-79
2021/12/23 01:01:47;;;;;;;;;;;-1.70;99.90;;;;;;6119023;23;20351;-78
2021/12/23 01:04:16;;;;;;;;;;;-1.70;99.90;;;;;;6155810;23;19929;-79
2021/12/23 01:06:50;;;;;;;;;;;-0.60;99.90;;;;;;6144566;23;19921;-81
2021/12/23 01:12:11;;;;;;;;;;;-1.60;99.90;;;;;;6115277;23;19921;-79
2021/12/23 01:14:54;;;;;;;;;;;-1.60;99.90;;;;;;6143497;23;19917;-79
2021/12/23 01:17:31;;;;;;;;;;;-1.60;99.90;;;;;;6142277;23;19925;-79
2021/12/23 01:20:00;;;;;;;;;;;-1.60;99.90;;;;;;6119746;23;19969;-79
2021/12/23 01:22:25;;;;;;;;;;;-1.50;99.90;;;;;;6142143;23;19932;-80
2021/12/23 01:24:51;;;;;;;;;;;-1.50;99.90;;;;;;6116758;23;19921;-79
2021/12/23 01:27:17;;;;;;;;;;;-1.50;99.90;;;;;;6119030;23;19921;-79
2021/12/23 01:29:42;;;;;;;;;;;-1.50;99.90;;;;;;6118694;23;20484;-79
2021/12/23 01:32:08;;;;;;;;;;;-1.50;99.90;;;;;;6142400;23;20724;-79
2021/12/23 01:34:35;;;;;;;;;;;-1.50;99.90;;;;;;6094466;23;19925;-79
2021/12/23 01:37:01;;;;;;;;;;;-1.50;99.90;;;;;;6117049;23;19974;-79
2021/12/23 01:39:26;;;;;;;;;;;-1.50;99.90;;;;;;6142769;23;19925;-79
2021/12/23 01:41:52;;;;;;;;;;;-1.50;99.90;;;;;;6119226;23;19936;-79
2021/12/23 01:44:17;;;;;;;;;;;-1.50;99.90;;;;;;6116076;23;19972;-79
2021/12/23 01:46:46;;;;;;;;;;;-1.50;99.90;;;;;;6118689;23;19947;-79
2021/12/23 01:49:12;;;;;;;;;;;-1.50;99.90;;;;;;6118163;23;20330;-78
2021/12/23 01:51:37;;;;;;;;;;;-1.70;99.90;;;;;;6142365;23;19969;-78
2021/12/23 01:54:03;;;;;;;;;;;-1.40;99.90;;;;;;6117703;23;19921;-79
2021/12/23 01:56:29;;;;;;;;;;;-1.40;99.90;;;;;;6143739;23;19922;-78
2021/12/23 01:58:54;;;;;;;;;;;-1.50;99.90;;;;;;6117703;23;20362;-79
2021/12/23 02:01:20;;;;;;;;;;;-1.40;99.90;;;;;;6143481;23;19920;-78
2021/12/23 02:03:46;;;;;;;;;;;-0.60;99.90;;;;;;6118098;23;19971;-79
2021/12/23 02:06:12;;;;;;;;;;;-1.40;99.90;;;;;;6117002;23;20250;-80
2021/12/23 02:08:38;;;;;;;;;;;-1.40;99.90;;;;;;6142007;23;19921;-80
2021/12/23 02:11:16;;;;;;;;;;;-1.40;99.90;;;;;;6118768;23;20305;-80
2021/12/23 02:13:41;;;;;;;;;;;-1.40;99.90;;;;;;6142120;23;19921;-78
2021/12/23 02:16:07;;;;;;;;;;;-1.40;99.90;;;;;;6094396;23;19992;-79
2021/12/23 02:18:33;;;;;;;;;;;-1.40;99.90;;;;;;6142711;23;20620;-85
2021/12/23 02:20:59;;;;;;;;;;;-1.10;99.90;;;;;;6117028;23;20417;-82
2021/12/23 02:23:30;;;;;;;;;;;-0.60;99.90;;;;;;6140783;23;20241;-82
2021/12/23 02:25:57;;;;;;;;;;;-1.30;99.90;;;;;;6145790;23;19996;-80
2021/12/23 02:28:22;;;;;;;;;;;-1.30;99.90;;;;;;6146051;23;19956;-80
2021/12/23 02:30:51;;;;;;;;;;;-1.20;99.90;;;;;;6123224;23;20258;-79
2021/12/23 02:33:18;;;;;;;;;;;-1.30;99.90;;;;;;6146266;23;19924;-79
2021/12/23 02:35:46;;;;;;;;;;;-1.20;99.90;;;;;;6122359;23;20036;-79
2021/12/23 02:38:12;;;;;;;;;;;-0.10;99.90;;;;;;6120525;23;19996;-79
2021/12/23 02:40:48;;;;;;;;;;;-1.30;99.90;;;;;;6122521;23;19952;-80
2021/12/23 02:43:15;;;;;;;;;;;-0.70;99.90;;;;;;6122509;23;20003;-80
2021/12/23 02:45:42;;;;;;;;;;;-1.20;99.90;;;;;;6148007;23;19927;-80
2021/12/23 02:48:15;;;;;;;;;;;1.30;99.90;;;;;;6146528;23;19965;-80
2021/12/23 02:50:46;;;;;;;;;;;-1.10;99.90;;;;;;6147207;23;19931;-80
2021/12/23 02:53:12;;;;;;;;;;;-1.00;99.90;;;;;;6118480;23;19998;-79
2021/12/23 02:55:37;;;;;;;;;;;-1.00;99.90;;;;;;6121998;23;19924;-80
2021/12/23 02:58:09;;;;;;;;;;;-1.00;99.90;;;;;;6122705;23;19929;-80
2021/12/23 03:00:36;;;;;;;;;;;-1.00;99.90;;;;;;6122614;23;19944;-79
2021/12/23 03:03:01;;;;;;;;;;;0.90;99.90;;;;;;6120813;23;19936;-81
2021/12/23 03:05:27;;;;;;;;;;;-1.00;99.90;;;;;;6146912;23;19936;-80
2021/12/23 03:07:52;;;;;;;;;;;-0.90;99.90;;;;;;6146230;23;20286;-79
2021/12/23 03:10:21;;;;;;;;;;;-1.00;99.90;;;;;;6121439;23;20424;-80
2021/12/23 03:12:47;;;;;;;;;;;-0.90;99.90;;;;;;6147175;23;19924;-80
2021/12/23 03:15:13;;;;;;;;;;;-0.90;99.90;;;;;;6146325;23;19924;-78
2021/12/23 03:17:39;;;;;;;;;;;-0.90;99.90;;;;;;6146137;23;19927;-79
2021/12/23 03:20:05;;;;;;;;;;;0.10;99.90;;;;;;6148125;23;19991;-80
2021/12/23 03:22:30;;;;;;;;;;;-1.00;99.90;;;;;;6122722;23;19924;-81
2021/12/23 03:24:56;;;;;;;;;;;-1.00;99.90;;;;;;6149014;23;19936;-80
2021/12/23 03:27:21;;;;;;;;;;;0.60;99.90;;;;;;6124431;23;19940;-80
2021/12/23 03:29:47;;;;;;;;;;;-1.00;99.90;;;;;;6148352;23;19920;-79
2021/12/23 03:32:12;;;;;;;;;;;-0.90;99.90;;;;;;6123250;23;19959;-79
2021/12/23 03:34:38;;;;;;;;;;;-0.90;99.90;;;;;;6146922;23;19920;-80
2021/12/23 03:37:04;;;;;;;;;;;-0.20;99.90;;;;;;6121814;23;19959;-80
2021/12/23 03:39:29;;;;;;;;;;;-0.90;99.90;;;;;;6122733;23;19959;-79
2021/12/23 03:41:55;;;;;;;;;;;-0.90;99.90;;;;;;6149187;23;20395;-80
2021/12/23 03:44:20;;;;;;;;;;;-0.90;99.90;;;;;;6147534;23;20451;-79
2021/12/23 03:46:46;;;;;;;;;;;-0.90;99.90;;;;;;6124750;23;19956;-80
2021/12/23 03:49:11;;;;;;;;;;;-0.90;99.90;;;;;;6124139;23;19988;-79
2021/12/23 03:51:37;;;;;;;;;;;-0.90;99.90;;;;;;6148214;23;19932;-80
2021/12/23 03:54:03;;;;;;;;;;;-0.90;99.90;;;;;;6122884;23;19925;-80
2021/12/23 03:56:29;;;;;;;;;;;-0.90;99.90;;;;;;6148997;23;19995;-81
2021/12/23 03:58:55;;;;;;;;;;;-0.80;99.90;;;;;;6147395;23;19967;-80
2021/12/23 04:01:25;;;;;;;;;;;-0.80;99.90;;;;;;6123674;23;19924;-81
2021/12/23 04:03:51;;;;;;;;;;;-0.80;99.90;;;;;;6123925;23;19995;-80
2021/12/23 04:06:18;;;;;;;;;;;-0.80;99.90;;;;;;6123177;23;20015;-82
2021/12/23 04:08:43;;;;;;;;;;;-0.80;99.90;;;;;;6148451;23;20285;-80
2021/12/23 04:11:09;;;;;;;;;;;-0.80;99.90;;;;;;6124525;23;19924;-81
2021/12/23 04:13:34;;;;;;;;;;;-0.70;99.90;;;;;;6148285;23;19924;-81
2021/12/23 04:16:00;;;;;;;;;;;-0.70;99.90;;;;;;6124040;23;19971;-81
2021/12/23 04:18:25;;;;;;;;;;;-0.70;99.90;;;;;;6148757;23;20199;-82
2021/12/23 04:20:54;;;;;;;;;;;-0.70;99.90;;;;;;6122640;23;19920;-81
2021/12/23 04:23:23;;;;;;;;;;;-0.70;99.90;;;;;;6146873;23;19924;-81
2021/12/23 04:25:49;;;;;;;;;;;-0.70;99.90;;;;;;6148289;23;19925;-82
2021/12/23 04:28:14;;;;;;;;;;;-0.70;99.90;;;;;;6148390;23;19940;-81
2021/12/23 04:30:40;;;;;;;;;;;-0.70;99.90;;;;;;6123961;23;19920;-81
2021/12/23 04:33:05;;;;;;;;;;;-0.70;99.90;;;;;;6147854;23;19920;-82
2021/12/23 04:35:31;;;;;;;;;;;-0.60;99.90;;;;;;6123739;23;19987;-81
2021/12/23 04:37:57;;;;;;;;;;;-0.60;99.90;;;;;;6147228;23;19925;-80
2021/12/23 04:40:22;;;;;;;;;;;-0.60;99.90;;;;;;6147580;23;19959;-81
2021/12/23 04:42:48;;;;;;;;;;;-0.60;99.90;;;;;;6148160;23;20566;-81
2021/12/23 04:45:13;;;;;;;;;;;-0.60;99.90;;;;;;6148532;23;20380;-81
2021/12/23 04:47:39;;;;;;;;;;;-0.60;99.90;;;;;;6122952;23;19938;-81
2021/12/23 04:50:06;;;;;;;;;;;-0.60;99.90;;;;;;6124196;23;20355;-81
2021/12/23 04:52:32;;;;;;;;;;;-0.60;99.90;;;;;;6122603;23;19939;-81
2021/12/23 04:54:57;;;;;;;;;;;-0.60;99.90;;;;;;6147621;23;19996;-81
2021/12/23 04:57:23;;;;;;;;;;;-0.80;99.90;;;;;;6148373;23;19924;-82
2021/12/23 04:59:48;;;;;;;;;;;-0.70;99.90;;;;;;6124312;23;19923;-81
2021/12/23 05:02:14;;;;;;;;;;;-0.70;99.90;;;;;;6147315;23;19920;-82
2021/12/23 05:04:39;;;;;;;;;;;0.00;99.90;;;;;;6148395;23;19928;-82
2021/12/23 05:07:05;;;;;;;;;;;-0.50;99.90;;;;;;6122148;23;20326;-82
2021/12/23 05:09:30;;;;;;;;;;;-0.70;99.90;;;;;;6146914;23;19952;-81
2021/12/23 05:11:58;;;;;;;;;;;-0.50;99.90;;;;;;6148104;23;19944;-81
2021/12/23 05:14:24;;;;;;;;;;;-0.50;99.90;;;;;;6147679;23;20233;-82
2021/12/23 05:16:50;;;;;;;;;;;-0.50;99.90;;;;;;6147504;23;19929;-82
2021/12/23 05:19:15;;;;;;;;;;;-0.50;99.90;;;;;;6147649;23;19925;-81
2021/12/23 05:21:41;;;;;;;;;;;1.70;99.90;;;;;;6147420;23;19932;-82
2021/12/23 05:24:06;;;;;;;;;;;-0.40;99.90;;;;;;6145555;23;20016;-81
2021/12/23 05:26:32;;;;;;;;;;;-0.40;99.90;;;;;;6123185;23;19939;-82
2021/12/23 05:28:57;;;;;;;;;;;0.60;99.90;;;;;;6146471;23;19921;-82
2021/12/23 05:31:23;;;;;;;;;;;-0.30;99.90;;;;;;6122907;23;20012;-82
2021/12/23 05:33:49;;;;;;;;;;;-0.30;99.90;;;;;;6148170;23;19990;-82
2021/12/23 05:36:14;;;;;;;;;;;-0.30;99.90;;;;;;6121935;23;19927;-81
2021/12/23 05:38:40;;;;;;;;;;;-0.30;99.90;;;;;;6146460;23;19924;-81
2021/12/23 05:41:05;;;;;;;;;;;-0.30;99.90;;;;;;6124055;23;19936;-81
2021/12/23 05:43:31;;;;;;;;;;;-0.30;99.90;;;;;;6146539;23;20455;-82
2021/12/23 05:45:56;;;;;;;;;;;-0.20;99.90;;;;;;6122870;23;20333;-81
2021/12/23 05:48:22;;;;;;;;;;;-0.20;99.90;;;;;;6123064;23;19920;-81
2021/12/23 05:50:47;;;;;;;;;;;-0.20;99.90;;;;;;6146877;23;20345;-82
2021/12/23 05:53:16;;;;;;;;;;;0.20;99.90;;;;;;6147738;23;20340;-82
2021/12/23 05:55:41;;;;;;;;;;;0.00;99.90;;;;;;6147667;23;19978;-82
2021/12/23 05:58:07;;;;;;;;;;;0.90;99.90;;;;;;6121832;23;20225;-82
2021/12/23 06:00:33;;;;;;;;;;;-0.20;99.90;;;;;;6147294;23;19935;-82
2021/12/23 06:02:59;;;;;;;;;;;-0.20;99.90;;;;;;6146990;23;19979;-81
2021/12/23 06:05:25;;;;;;;;;;;0.50;99.90;;;;;;6121648;23;19976;-82
2021/12/23 06:07:50;;;;;;;;;;;-0.20;99.90;;;;;;6121948;23;19921;-81
2021/12/23 06:10:16;;;;;;;;;;;-0.10;99.90;;;;;;6146904;23;20003;-82
2021/12/23 06:12:42;;;;;;;;;;;-0.10;99.90;;;;;;6121841;23;19995;-82
2021/12/23 06:15:11;;;;;;;;;;;-0.10;99.90;;;;;;6146916;23;19921;-81
2021/12/23 06:17:37;;;;;;;;;;;-0.10;99.90;;;;;;6146794;23;19924;-81
2021/12/23 06:20:04;;;;;;;;;;;-0.10;99.90;;;;;;6146745;23;20047;-81
2021/12/23 06:22:29;;;;;;;;;;;-0.10;99.90;;;;;;6120928;23;19947;-81
2021/12/23 06:24:55;;;;;;;;;;;-0.10;99.90;;;;;;6120894;23;19947;-81
2021/12/23 06:27:21;;;;;;;;;;;-0.10;99.90;;;;;;6145756;23;19971;-83
2021/12/23 06:29:47;;;;;;;;;;;-0.10;99.90;;;;;;6122840;23;19996;-80
2021/12/23 06:32:12;;;;;;;;;;;-0.10;99.90;;;;;;6121547;23;19924;-79
2021/12/23 06:34:38;;;;;;;;;;;1.00;99.90;;;;;;6122834;23;19989;-80
2021/12/23 06:37:04;;;;;;;;;;;0.00;99.90;;;;;;6121724;23;19992;-79
2021/12/23 06:39:33;;;;;;;;;;;-0.10;99.90;;;;;;6121087;23;19990;-78
2021/12/23 06:42:12;;;;;;;;;;;0.00;99.90;;;;;;6123081;23;19920;-81
2021/12/23 06:48:18;;;;;;;;;;;-1.70;99.90;;;;;;6148674;23;20063;-82
2021/12/23 10:38:59;;;;;;;;;;;0.10;99.90;;;;;;6149120;23;20352;-84
2021/12/23 11:50:42;;;;;;;;;;;0.10;99.90;;;;;;6145558;23;20338;-86
2021/12/23 13:45:21;;;;;;;;;;;0.60;99.90;;;;;;6145032;23;19946;-85
2021/12/23 14:57:05;;;;;;;;;;;0.70;99.90;;;;;;6165500;23;19932;-84
2021/12/23 16:25:39;;;;;;;;;;;1.50;99.90;;;;;;6169925;23;19987;-81
2021/12/23 16:28:05;;;;;;;;;;;2.40;99.90;;;;;;6123235;23;20381;-81
2021/12/23 16:30:31;;;;;;;;;;;1.30;99.90;;;;;;6145806;23;19920;-82
2021/12/23 16:33:08;;;;;;;;;;;1.70;99.90;;;;;;6148420;23;19980;-80
2021/12/23 18:14:18;;;;;;;;;;;2.60;99.90;;;;;;6151253;23;19980;-78
2021/12/23 18:16:47;;;;;;;;;;;2.70;99.90;;;;;;6092754;23;19964;-80
2021/12/23 18:19:31;;;;;;;;;;;3.20;99.90;;;;;;6103278;23;19920;-81
2021/12/23 19:38:58;;;;;;;;;;;4.10;99.90;;;;;;6166122;23;20249;-79
2021/12/23 22:19:49;;;;;;;;;;;5.10;99.90;;;;;;6163001;23;19967;-80
2021/12/23 22:22:20;;;;;;;;;;;5.10;99.90;;;;;;6119021;23;20331;-81
2021/12/23 22:24:46;;;;;;;;;;;5.10;99.90;;;;;;6144971;23;19960;-82
2021/12/23 22:27:12;;;;;;;;;;;5.10;99.90;;;;;;6145409;23;20203;-85
